createdAt,value
2023-05-15T00:01:57.579Z,86.04
2023-05-15T00:04:28.858Z,85.96
2023-05-15T00:06:59.722Z,86.00
2023-05-15T00:09:30.936Z,86.06
2023-05-15T00:12:02.176Z,85.95
2023-05-15T00:14:33.257Z,85.78
2023-05-15T00:17:04.250Z,85.81
2023-05-15T00:19:35.567Z,85.82
2023-05-15T00:22:06.851Z,85.82
2023-05-15T00:24:37.889Z,85.69
2023-05-15T00:27:09.313Z,85.76
2023-05-15T00:29:40.180Z,85.88
2023-05-15T00:32:11.669Z,85.84
2023-05-15T00:34:42.664Z,85.93
2023-05-15T00:37:13.867Z,85.85
2023-05-15T00:39:44.815Z,86.00
2023-05-15T00:42:16.418Z,86.10
2023-05-15T00:44:49.690Z,86.03
2023-05-15T00:47:22.357Z,86.03
2023-05-15T00:49:53.919Z,86.05
2023-05-15T00:52:25.354Z,86.24
2023-05-15T00:54:56.531Z,86.34
2023-05-15T00:57:27.589Z,86.30
2023-05-15T01:00:00.418Z,86.40
2023-05-15T01:02:33.012Z,86.36
2023-05-15T01:05:04.454Z,86.40
2023-05-15T01:07:41.809Z,86.50
2023-05-15T01:10:12.039Z,86.51
2023-05-15T01:12:45.224Z,86.65
2023-05-15T01:15:16.359Z,86.57
2023-05-15T01:17:47.948Z,86.58
2023-05-15T01:20:22.334Z,86.75
2023-05-15T01:23:07.285Z,86.74
2023-05-15T01:26:03.589Z,86.77
2023-05-15T01:28:40.976Z,86.81
2023-05-15T01:31:17.567Z,86.86
2023-05-15T01:33:52.590Z,86.85
2023-05-15T01:36:26.120Z,87.01
2023-05-15T01:39:02.510Z,86.94
2023-05-15T01:41:37.920Z,86.89
2023-05-15T01:44:15.336Z,86.91
2023-05-15T01:46:51.498Z,86.95
2023-05-15T01:49:27.803Z,86.89
2023-05-15T01:52:05.236Z,86.92
2023-05-15T01:54:37.369Z,86.90
2023-05-15T01:57:10.822Z,87.02
2023-05-15T01:59:43.016Z,87.09
2023-05-15T02:02:16.248Z,87.02
2023-05-15T02:04:49.254Z,87.03
2023-05-15T02:07:21.083Z,87.08
2023-05-15T02:09:53.723Z,87.04
2023-05-15T02:12:25.649Z,87.12
2023-05-15T02:14:59.253Z,87.19
2023-05-15T02:17:31.254Z,87.25
2023-05-15T02:20:02.542Z,87.17
2023-05-15T02:22:34.391Z,87.12
2023-05-15T02:25:05.887Z,87.21
2023-05-15T02:27:47.161Z,87.27
2023-05-15T02:30:39.692Z,87.21
2023-05-15T02:33:20.766Z,87.21
2023-05-15T02:35:58.206Z,87.17
2023-05-15T02:38:39.644Z,87.28
2023-05-15T02:41:11.304Z,87.55
2023-05-15T02:43:43.169Z,87.51
2023-05-15T02:46:15.876Z,87.70
2023-05-15T02:48:48.393Z,87.74
2023-05-15T02:51:19.423Z,87.79
2023-05-15T02:53:51.019Z,87.86
2023-05-15T02:56:22.454Z,87.90
2023-05-15T02:58:53.395Z,88.04
2023-05-15T03:01:24.652Z,88.16
2023-05-15T03:03:56.047Z,88.21
2023-05-15T03:06:27.496Z,88.28
2023-05-15T03:08:58.724Z,88.30
2023-05-15T03:11:28.258Z,88.31
2023-05-15T03:14:00.266Z,88.37
2023-05-15T03:16:31.525Z,88.44
2023-05-15T03:19:02.699Z,88.42
2023-05-15T03:21:35.090Z,88.33
2023-05-15T03:24:06.536Z,88.42
2023-05-15T03:26:37.800Z,88.48
2023-05-15T03:29:08.914Z,88.40
2023-05-15T03:31:39.959Z,88.40
2023-05-15T03:34:11.269Z,88.38
2023-05-15T03:36:40.903Z,88.37
2023-05-15T03:39:12.034Z,88.44
2023-05-15T03:41:43.255Z,88.45
2023-05-15T03:44:14.313Z,88.52
2023-05-15T03:46:43.644Z,88.51
2023-05-15T03:49:14.703Z,88.38
2023-05-15T03:51:45.941Z,88.43
2023-05-15T03:54:17.085Z,88.53
2023-05-15T03:56:48.273Z,88.48
2023-05-15T03:59:19.671Z,88.66
2023-05-15T04:02:03.496Z,88.69
2023-05-15T04:04:35.782Z,88.78
2023-05-15T04:07:08.082Z,88.85
2023-05-15T04:09:39.053Z,88.86
2023-05-15T04:12:10.790Z,88.97
2023-05-15T04:14:42.003Z,88.86
2023-05-15T04:17:12.949Z,88.86
2023-05-15T04:19:45.964Z,88.86
2023-05-15T04:22:17.043Z,88.84
2023-05-15T04:24:48.234Z,88.83
2023-05-15T04:27:19.233Z,88.87
2023-05-15T04:29:48.580Z,88.91
2023-05-15T04:32:18.288Z,88.89
2023-05-15T04:34:49.476Z,88.95
2023-05-15T04:37:20.577Z,89.05
2023-05-15T04:39:51.645Z,89.01
2023-05-15T04:42:22.691Z,89.05
2023-05-15T04:44:54.720Z,88.97
2023-05-15T04:47:25.812Z,89.00
2023-05-15T04:49:56.840Z,89.02
2023-05-15T04:52:27.851Z,88.99
2023-05-15T04:54:59.033Z,88.94
2023-05-15T04:57:30.604Z,88.97
2023-05-15T05:00:01.904Z,88.92
2023-05-15T05:02:33.712Z,88.95
2023-05-15T05:05:04.882Z,88.86
2023-05-15T05:07:35.848Z,88.93
2023-05-15T05:10:08.089Z,88.99
2023-05-15T05:12:39.178Z,89.07
2023-05-15T05:15:12.157Z,89.07
2023-05-15T05:17:43.321Z,88.79
2023-05-15T05:20:14.996Z,88.73
2023-05-15T05:22:46.236Z,88.75
2023-05-15T05:25:17.468Z,88.56
2023-05-15T05:27:48.677Z,88.57
2023-05-15T05:30:20.861Z,88.57
2023-05-15T05:32:52.062Z,88.38
2023-05-15T05:35:26.249Z,88.37
2023-05-15T05:37:57.503Z,88.31
2023-05-15T05:40:28.503Z,88.32
2023-05-15T05:43:01.836Z,88.24
2023-05-15T05:45:32.904Z,88.35
2023-05-15T05:48:05.025Z,88.23
2023-05-15T05:50:36.318Z,88.05
2023-05-15T05:53:07.601Z,88.07
2023-05-15T05:55:38.712Z,88.03
2023-05-15T05:58:21.711Z,87.97
2023-05-15T06:00:56.515Z,88.01
2023-05-15T06:03:28.018Z,88.05
2023-05-15T06:05:59.191Z,87.97
2023-05-15T06:08:31.555Z,87.87
2023-05-15T06:11:03.472Z,87.80
2023-05-15T06:13:34.628Z,87.72
2023-05-15T06:16:06.211Z,87.64
2023-05-15T06:18:37.354Z,87.18
2023-05-15T06:21:08.859Z,86.99
2023-05-15T06:23:39.906Z,86.73
2023-05-15T06:26:10.890Z,86.45
2023-05-15T06:28:42.105Z,86.23
2023-05-15T06:31:13.594Z,86.45
2023-05-15T06:33:44.719Z,85.81
2023-05-15T06:36:15.832Z,85.68
2023-05-15T06:38:47.046Z,85.61
2023-05-15T06:41:18.002Z,85.07
2023-05-15T06:43:49.100Z,85.24
2023-05-15T06:46:20.253Z,85.24
2023-05-15T06:48:51.453Z,84.80
2023-05-15T06:51:22.771Z,84.81
2023-05-15T06:53:53.715Z,84.40
2023-05-15T06:56:25.076Z,84.65
2023-05-15T06:58:56.648Z,85.26
2023-05-15T07:01:27.883Z,85.06
2023-05-15T07:03:58.829Z,84.80
2023-05-15T07:06:32.016Z,85.10
2023-05-15T07:09:03.296Z,85.04
2023-05-15T07:11:37.510Z,84.58
2023-05-15T07:14:08.994Z,84.48
2023-05-15T07:16:40.006Z,84.64
2023-05-15T07:19:12.270Z,84.99
2023-05-15T07:21:43.399Z,85.01
2023-05-15T07:24:14.444Z,85.10
2023-05-15T07:26:57.590Z,85.09
2023-05-15T07:29:29.978Z,85.21
2023-05-15T07:32:01.451Z,85.01
2023-05-15T07:34:32.622Z,84.73
2023-05-15T07:37:03.762Z,84.97
2023-05-15T07:39:34.845Z,85.19
2023-05-15T07:42:06.057Z,84.87
2023-05-15T07:44:37.134Z,84.82
2023-05-15T07:47:08.660Z,84.93
2023-05-15T07:49:39.527Z,84.69
2023-05-15T07:52:10.648Z,84.83
2023-05-15T07:54:42.672Z,85.06
2023-05-15T07:57:14.256Z,84.67
2023-05-15T07:59:45.185Z,84.45
2023-05-15T08:02:16.260Z,84.24
2023-05-15T08:04:47.329Z,83.88
2023-05-15T08:07:18.590Z,83.57
2023-05-15T08:09:49.569Z,83.11
2023-05-15T08:12:22.224Z,83.07
2023-05-15T08:14:55.051Z,82.34
2023-05-15T08:17:26.704Z,82.35
2023-05-15T08:19:58.321Z,82.15
2023-05-15T08:22:30.382Z,82.01
2023-05-15T08:25:03.846Z,81.98
2023-05-15T08:27:36.094Z,81.16
2023-05-15T08:30:08.605Z,81.44
2023-05-15T08:32:39.659Z,81.07
2023-05-15T08:35:11.535Z,80.16
2023-05-15T08:37:42.703Z,79.98
2023-05-15T08:40:16.255Z,79.54
2023-05-15T08:42:51.020Z,79.39
2023-05-15T08:45:22.361Z,79.42
2023-05-15T08:47:54.644Z,78.90
2023-05-15T08:50:27.358Z,79.69
2023-05-15T08:53:01.758Z,78.42
2023-05-15T08:55:33.022Z,79.50
2023-05-15T08:58:04.402Z,79.87
2023-05-15T09:00:36.196Z,79.60
2023-05-15T09:03:08.060Z,78.68
2023-05-15T09:05:40.137Z,78.52
2023-05-15T09:08:11.703Z,77.67
2023-05-15T09:10:43.523Z,78.34
2023-05-15T09:13:15.823Z,78.53
2023-05-15T09:15:48.725Z,78.70
2023-05-15T09:18:21.331Z,77.93
2023-05-15T09:20:54.116Z,77.74
2023-05-15T09:23:28.865Z,77.32
2023-05-15T09:26:00.032Z,78.40
2023-05-15T09:28:33.412Z,78.86
2023-05-15T09:31:06.405Z,78.69
2023-05-15T09:33:39.260Z,78.71
2023-05-15T09:36:11.245Z,78.50
2023-05-15T09:38:48.397Z,77.64
2023-05-15T09:41:27.668Z,77.26
2023-05-15T09:43:58.810Z,78.08
2023-05-15T09:46:30.299Z,77.19
2023-05-15T09:49:02.454Z,77.81
2023-05-15T09:51:33.453Z,78.29
2023-05-15T09:54:04.499Z,78.51
2023-05-15T09:56:35.561Z,78.88
2023-05-15T09:59:07.100Z,79.19
2023-05-15T10:01:38.439Z,79.09
2023-05-15T10:04:10.458Z,79.43
2023-05-15T10:06:43.441Z,80.19
2023-05-15T10:09:15.472Z,80.67
2023-05-15T10:11:51.489Z,80.93
2023-05-15T10:14:24.395Z,80.74
2023-05-15T10:16:56.597Z,81.36
2023-05-15T10:19:29.658Z,81.13
2023-05-15T10:22:01.877Z,81.62
2023-05-15T10:24:34.464Z,82.08
2023-05-15T10:27:06.407Z,81.99
2023-05-15T10:29:39.129Z,82.43
2023-05-15T10:32:11.438Z,81.91
2023-05-15T10:34:43.324Z,81.97
2023-05-15T10:37:15.727Z,81.93
2023-05-15T10:39:48.639Z,82.39
2023-05-15T10:42:20.224Z,82.45
2023-05-15T10:44:51.990Z,82.64
2023-05-15T10:47:23.371Z,82.21
2023-05-15T10:49:54.917Z,82.30
2023-05-15T10:52:26.705Z,82.53
2023-05-15T10:54:58.072Z,82.41
2023-05-15T10:57:31.332Z,82.55
2023-05-15T11:00:02.528Z,82.40
2023-05-15T11:02:40.704Z,82.25
2023-05-15T11:05:13.976Z,82.18
2023-05-15T11:07:45.300Z,81.52
2023-05-15T11:10:39.615Z,81.04
2023-05-15T11:13:12.102Z,81.71
2023-05-15T11:15:46.120Z,81.84
2023-05-15T11:18:17.640Z,81.75
2023-05-15T11:21:11.138Z,81.72
2023-05-15T11:23:42.960Z,81.63
2023-05-15T11:26:15.898Z,82.18
2023-05-15T11:28:47.403Z,81.41
2023-05-15T11:31:18.475Z,81.20
2023-05-15T11:33:53.296Z,80.86
2023-05-15T11:36:26.397Z,80.21
2023-05-15T11:38:58.688Z,80.73
2023-05-15T11:41:34.063Z,79.55
2023-05-15T11:44:05.295Z,79.53
2023-05-15T11:46:38.186Z,78.96
2023-05-15T11:49:09.430Z,78.72
2023-05-15T11:51:43.371Z,79.07
2023-05-15T11:54:14.828Z,79.05
2023-05-15T11:56:47.082Z,78.59
2023-05-15T11:59:18.032Z,79.43
2023-05-15T12:01:49.173Z,79.69
2023-05-15T12:04:20.827Z,79.31
2023-05-15T12:06:52.016Z,80.08
2023-05-15T12:09:27.443Z,80.83
2023-05-15T12:11:58.679Z,80.93
2023-05-15T12:14:33.959Z,81.15
2023-05-15T12:17:06.116Z,81.52
2023-05-15T12:19:39.161Z,81.07
2023-05-15T12:22:10.312Z,81.52
2023-05-15T12:24:45.502Z,82.03
2023-05-15T12:27:17.471Z,81.21
2023-05-15T12:29:48.616Z,80.63
2023-05-15T12:32:19.749Z,79.69
2023-05-15T12:34:51.150Z,79.30
2023-05-15T12:37:23.126Z,79.29
2023-05-15T12:39:57.135Z,78.70
2023-05-15T12:42:28.763Z,79.06
2023-05-15T12:45:00.269Z,78.31
2023-05-15T12:47:33.851Z,78.98
2023-05-15T12:50:12.427Z,80.07
2023-05-15T12:52:51.210Z,79.90
2023-05-15T12:55:26.178Z,79.22
2023-05-15T12:57:59.974Z,78.76
2023-05-15T13:00:32.115Z,79.09
2023-05-15T13:03:05.787Z,79.41
2023-05-15T13:05:38.210Z,79.14
2023-05-15T13:08:09.590Z,78.33
2023-05-15T13:10:40.965Z,78.18
2023-05-15T13:13:12.238Z,76.53
2023-05-15T13:15:46.077Z,77.37
2023-05-15T13:18:18.429Z,76.94
2023-05-15T13:20:52.740Z,77.51
2023-05-15T13:23:24.984Z,77.46
2023-05-15T13:25:55.931Z,77.92
2023-05-15T13:28:26.980Z,78.39
2023-05-15T13:30:58.131Z,77.69
2023-05-15T13:33:29.919Z,76.43
2023-05-15T13:36:01.030Z,75.90
2023-05-15T13:38:33.467Z,75.60
2023-05-15T13:41:04.898Z,75.90
2023-05-15T13:43:35.777Z,76.01
2023-05-15T13:46:07.147Z,74.84
2023-05-15T13:48:38.151Z,74.29
2023-05-15T13:51:09.181Z,72.81
2023-05-15T13:53:40.346Z,72.60
2023-05-15T13:56:11.881Z,72.92
2023-05-15T13:58:42.885Z,73.93
2023-05-15T14:01:13.822Z,73.72
2023-05-15T14:03:45.430Z,71.23
2023-05-15T14:06:16.433Z,71.16
2023-05-15T14:08:47.445Z,71.75
2023-05-15T14:11:18.690Z,71.29
2023-05-15T14:13:49.589Z,69.62
2023-05-15T14:16:20.490Z,70.12
2023-05-15T14:18:51.582Z,70.56
2023-05-15T14:21:22.822Z,68.93
2023-05-15T14:23:54.006Z,67.52
2023-05-15T14:26:24.841Z,68.67
2023-05-15T14:28:55.737Z,66.70
2023-05-15T14:31:26.804Z,64.58
2023-05-15T14:33:57.836Z,63.31
2023-05-15T14:36:28.954Z,63.21
2023-05-15T14:39:00.711Z,61.41
2023-05-15T14:41:31.786Z,60.52
2023-05-15T14:44:02.716Z,60.74
2023-05-15T14:46:33.743Z,61.72
2023-05-15T14:49:05.108Z,59.35
2023-05-15T14:51:36.474Z,59.05
2023-05-15T14:54:07.959Z,59.20
2023-05-15T14:56:38.925Z,58.50
2023-05-15T14:59:10.015Z,60.72
2023-05-15T15:01:41.118Z,60.20
2023-05-15T15:04:12.631Z,60.64
2023-05-15T15:06:44.306Z,60.85
2023-05-15T15:09:15.373Z,59.39
2023-05-15T15:11:47.308Z,59.91
2023-05-15T15:14:18.605Z,60.39
2023-05-15T15:16:49.937Z,59.93
2023-05-15T15:19:21.840Z,59.73
2023-05-15T15:21:52.807Z,59.72
2023-05-15T15:24:23.746Z,58.56
2023-05-15T15:26:54.635Z,58.88
2023-05-15T15:29:25.471Z,59.33
2023-05-15T15:31:56.521Z,59.72
2023-05-15T15:34:27.998Z,60.56
2023-05-15T15:36:59.057Z,61.12
2023-05-15T15:39:30.077Z,61.90
2023-05-15T15:42:13.333Z,62.32
2023-05-15T15:44:44.570Z,61.94
2023-05-15T15:47:15.548Z,63.09
2023-05-15T15:49:46.601Z,63.26
2023-05-15T15:52:17.810Z,63.86
2023-05-15T15:54:48.895Z,63.57
2023-05-15T15:57:21.050Z,63.07
2023-05-15T15:59:52.180Z,61.45
2023-05-15T16:02:23.438Z,61.18
2023-05-15T16:04:54.642Z,61.29
2023-05-15T16:07:25.736Z,60.34
2023-05-15T16:10:10.856Z,60.10
2023-05-15T16:12:45.037Z,59.10
2023-05-15T16:15:23.120Z,58.70
2023-05-15T16:17:55.331Z,58.24
2023-05-15T16:20:26.966Z,57.54
2023-05-15T16:22:58.388Z,57.16
2023-05-15T16:25:29.539Z,57.30
2023-05-15T16:28:00.527Z,58.14
2023-05-15T16:30:47.137Z,58.90
2023-05-15T16:33:19.730Z,57.80
2023-05-15T16:35:51.027Z,58.81
2023-05-15T16:38:22.964Z,58.78
2023-05-15T16:40:53.859Z,59.07
2023-05-15T16:43:24.988Z,59.14
2023-05-15T16:45:56.059Z,59.13
2023-05-15T16:48:27.983Z,59.13
2023-05-15T16:50:59.287Z,59.52
2023-05-15T16:53:30.356Z,59.35
2023-05-15T16:56:01.406Z,59.59
2023-05-15T16:58:33.229Z,60.59
2023-05-15T17:01:05.382Z,60.46
2023-05-15T17:03:36.859Z,60.57
2023-05-15T17:06:08.502Z,60.02
2023-05-15T17:08:39.308Z,60.48
2023-05-15T17:11:11.501Z,60.61
2023-05-15T17:13:42.785Z,60.82
2023-05-15T17:16:13.753Z,60.98
2023-05-15T17:18:45.224Z,60.77
2023-05-15T17:21:16.796Z,61.09
2023-05-15T17:23:47.804Z,61.11
2023-05-15T17:26:18.851Z,61.19
2023-05-15T17:28:50.560Z,61.62
2023-05-15T17:31:22.180Z,61.52
2023-05-15T17:33:53.145Z,61.89
2023-05-15T17:36:24.282Z,61.99
2023-05-15T17:38:55.313Z,61.76
2023-05-15T17:41:26.680Z,62.08
2023-05-15T17:43:57.747Z,62.77
2023-05-15T17:46:28.998Z,63.45
2023-05-15T17:49:00.009Z,64.21
2023-05-15T17:51:31.085Z,64.84
2023-05-15T17:54:02.260Z,65.61
2023-05-15T17:56:33.873Z,66.37
2023-05-15T17:59:05.046Z,67.02
2023-05-15T18:01:36.159Z,67.29
2023-05-15T18:04:07.336Z,67.89
2023-05-15T18:06:38.866Z,68.62
2023-05-15T18:09:10.421Z,68.92
2023-05-15T18:11:41.768Z,69.43
2023-05-15T18:14:13.307Z,69.78
2023-05-15T18:16:44.915Z,70.49
2023-05-15T18:19:16.153Z,70.99
2023-05-15T18:21:47.436Z,71.61
2023-05-15T18:24:18.487Z,71.93
2023-05-15T18:26:49.650Z,72.31
2023-05-15T18:29:20.535Z,72.70
2023-05-15T18:31:51.687Z,72.96
2023-05-15T18:34:23.073Z,73.52
2023-05-15T18:36:54.020Z,73.90
2023-05-15T18:39:25.011Z,74.30
2023-05-15T18:41:56.459Z,74.74
2023-05-15T18:44:27.350Z,74.85
2023-05-15T18:46:58.430Z,75.09
2023-05-15T18:49:30.504Z,75.35
2023-05-15T18:52:01.704Z,75.66
2023-05-15T18:54:32.724Z,75.91
2023-05-15T18:57:04.169Z,76.21
2023-05-15T18:59:35.163Z,76.36
2023-05-15T19:02:06.334Z,76.54
2023-05-15T19:04:37.431Z,76.79
2023-05-15T19:07:09.079Z,76.93
2023-05-15T19:09:39.931Z,77.20
2023-05-15T19:12:11.337Z,77.50
2023-05-15T19:14:42.412Z,77.90
2023-05-15T19:17:13.233Z,78.25
2023-05-15T19:19:44.514Z,78.47
2023-05-15T19:22:17.384Z,78.79
2023-05-15T19:24:48.914Z,79.06
2023-05-15T19:27:20.087Z,79.35
2023-05-15T19:29:50.970Z,79.64
2023-05-15T19:32:22.194Z,79.78
2023-05-15T19:34:53.542Z,79.82
2023-05-15T19:37:24.559Z,80.04
2023-05-15T19:39:55.716Z,80.02
2023-05-15T19:42:26.945Z,80.08
2023-05-15T19:44:58.400Z,80.22
2023-05-15T19:47:29.524Z,80.57
2023-05-15T19:50:00.682Z,81.09
2023-05-15T19:52:32.329Z,81.09
2023-05-15T19:55:03.763Z,81.16
2023-05-15T19:57:35.952Z,81.22
2023-05-15T20:00:10.401Z,81.21
2023-05-15T20:02:42.296Z,81.21
2023-05-15T20:05:13.938Z,81.23
2023-05-15T20:07:45.171Z,81.21
2023-05-15T20:10:18.665Z,81.27
2023-05-15T20:12:49.858Z,81.38
2023-05-15T20:15:21.050Z,81.55
2023-05-15T20:17:52.240Z,81.51
2023-05-15T20:20:24.246Z,81.41
2023-05-15T20:22:55.612Z,81.19
2023-05-15T20:25:28.745Z,81.10
2023-05-15T20:28:00.869Z,81.02
2023-05-15T20:30:33.004Z,81.03
2023-05-15T20:33:04.461Z,81.11
2023-05-15T20:35:35.571Z,80.80
2023-05-15T20:38:06.553Z,80.45
2023-05-15T20:40:37.835Z,80.61
2023-05-15T20:43:09.051Z,80.58
2023-05-15T20:45:40.362Z,80.69
2023-05-15T20:48:11.982Z,80.81
2023-05-15T20:50:43.345Z,80.75
2023-05-15T20:53:14.485Z,80.99
2023-05-15T20:55:46.302Z,80.95
2023-05-15T20:58:17.308Z,80.70
2023-05-15T21:00:48.835Z,80.64
2023-05-15T21:03:20.539Z,80.55
2023-05-15T21:05:54.829Z,80.41
2023-05-15T21:08:29.075Z,80.47
2023-05-15T21:11:00.378Z,80.55
2023-05-15T21:13:31.534Z,80.56
2023-05-15T21:16:02.420Z,80.62
2023-05-15T21:18:33.726Z,80.77
2023-05-15T21:21:07.192Z,80.70
2023-05-15T21:23:38.281Z,80.67
2023-05-15T21:26:09.484Z,80.71
2023-05-15T21:28:40.629Z,80.83
2023-05-15T21:31:12.412Z,80.91
2023-05-15T21:33:43.494Z,80.96
2023-05-15T21:36:14.951Z,80.94
2023-05-15T21:38:46.130Z,81.17
2023-05-15T21:41:17.549Z,81.31
2023-05-15T21:43:48.715Z,81.09
2023-05-15T21:46:19.894Z,81.19
2023-05-15T21:48:51.291Z,81.16
2023-05-15T21:51:22.347Z,81.20
2023-05-15T21:53:53.301Z,81.18
2023-05-15T21:56:24.507Z,81.06
2023-05-15T21:58:54.801Z,81.16
2023-05-15T22:01:25.853Z,81.38
2023-05-15T22:03:59.540Z,81.75
2023-05-15T22:06:31.267Z,81.70
2023-05-15T22:09:02.412Z,81.63
2023-05-15T22:11:33.561Z,81.49
2023-05-15T22:14:05.580Z,81.63
2023-05-15T22:16:36.635Z,81.83
2023-05-15T22:19:10.108Z,82.04
2023-05-15T22:21:47.269Z,82.23
2023-05-15T22:24:18.343Z,82.28
2023-05-15T22:26:49.533Z,82.07
2023-05-15T22:29:20.765Z,82.20
2023-05-15T22:31:51.890Z,82.41
2023-05-15T22:34:23.092Z,82.60
2023-05-15T22:39:30.223Z,82.36
2023-05-15T22:42:01.352Z,82.29
2023-05-15T22:44:32.557Z,82.37
2023-05-15T22:47:03.413Z,82.64
2023-05-15T22:49:32.830Z,82.90
2023-05-15T22:52:03.745Z,83.20
2023-05-15T22:54:34.835Z,82.95
2023-05-15T22:57:06.658Z,82.91
2023-05-15T22:59:38.047Z,82.99
2023-05-15T23:02:07.417Z,83.19
2023-05-15T23:04:37.080Z,83.23
2023-05-15T23:07:08.388Z,83.57
2023-05-15T23:09:39.500Z,83.71
2023-05-15T23:12:10.924Z,83.82
2023-05-15T23:14:42.644Z,83.92
2023-05-15T23:17:13.751Z,84.11
2023-05-15T23:19:43.137Z,84.06
2023-05-15T23:22:14.206Z,84.29
2023-05-15T23:24:45.219Z,84.43
2023-05-15T23:27:14.587Z,84.14
2023-05-15T23:29:45.497Z,84.14
2023-05-15T23:32:16.616Z,84.13
2023-05-15T23:34:47.803Z,83.96
2023-05-15T23:37:18.959Z,83.76
2023-05-15T23:39:50.432Z,83.68
2023-05-15T23:42:21.559Z,83.76
2023-05-15T23:44:52.808Z,83.81
2023-05-15T23:47:23.935Z,83.92
2023-05-15T23:49:55.013Z,84.22
2023-05-15T23:52:26.076Z,84.04
2023-05-15T23:54:55.600Z,84.18
2023-05-15T23:57:26.722Z,84.19
2023-05-15T23:59:58.119Z,84.28
